<?xml version="1.0" encoding="UTF-8" standalone="no" ?>
<gpx xmlns="http://www.topografix.com/GPX/1/1" xmlns:xsi="http://www.w3.org/2001/XMLSchema-instance" xsi:schemaLocation="http://www.topografix.com/GPX/1/1 http://www.topografix.com/GPX/1/1/gpx.xsd" version="1.1" creator="VisuGPX - https://www.visugpx.com">
  <metadata>
    <name>1° Jour</name>
    <desc><![CDATA[Petite boucle autour du Camping du Prieuré]]></desc>
  </metadata>
  <trk>
    <name><![CDATA[OR-6387190--Saint-Martin-d'Entraunes:Petite boucle]]></name>
    <trkseg>
      <trkpt lat="44.14867" lon="6.76225">
        <ele>1053</ele>
        <time>2016-08-05T15:45:59Z</time>
      </trkpt>
      <trkpt lat="44.14823" lon="6.76367">
        <ele>1060</ele>
        <time>2016-08-05T15:47:59Z</time>
      </trkpt>
      <trkpt lat="44.14856" lon="6.76382">
        <ele>1069</ele>
        <time>2016-08-05T15:49:59Z</time>
      </trkpt>
      <trkpt lat="44.14841" lon="6.76423">
        <ele>1072</ele>
        <time>2016-08-05T15:51:59Z</time>
      </trkpt>
      <trkpt lat="44.14884" lon="6.76423">
        <ele>1080</ele>
        <time>2016-08-05T15:53:59Z</time>
      </trkpt>
      <trkpt lat="44.14887" lon="6.76521">
        <ele>1093</ele>
        <time>2016-08-05T15:55:59Z</time>
      </trkpt>
      <trkpt lat="44.14967" lon="6.76605">
        <ele>1121</ele>
        <time>2016-08-05T15:57:59Z</time>
      </trkpt>
      <trkpt lat="44.15" lon="6.76682">
        <ele>1144</ele>
        <time>2016-08-05T15:59:59Z</time>
      </trkpt>
      <trkpt lat="44.15012" lon="6.76644">
        <ele>1139</ele>
        <time>2016-08-05T16:01:59Z</time>
      </trkpt>
      <trkpt lat="44.15038" lon="6.76708">
        <ele>1158</ele>
        <time>2016-08-05T16:03:59Z</time>
      </trkpt>
      <trkpt lat="44.15084" lon="6.76732">
        <ele>1172</ele>
        <time>2016-08-05T16:05:59Z</time>
      </trkpt>
      <trkpt lat="44.15172" lon="6.76702">
        <ele>1193</ele>
        <time>2016-08-05T16:07:59Z</time>
      </trkpt>
      <trkpt lat="44.15197" lon="6.76723">
        <ele>1207</ele>
        <time>2016-08-05T16:09:59Z</time>
      </trkpt>
      <trkpt lat="44.1524" lon="6.76714">
        <ele>1217</ele>
        <time>2016-08-05T16:11:59Z</time>
      </trkpt>
      <trkpt lat="44.15245" lon="6.76741">
        <ele>1229</ele>
        <time>2016-08-05T16:13:59Z</time>
      </trkpt>
      <trkpt lat="44.15363" lon="6.76637">
        <ele>1249</ele>
        <time>2016-08-05T16:15:59Z</time>
      </trkpt>
      <trkpt lat="44.15352" lon="6.767">
        <ele>1266</ele>
        <time>2016-08-05T16:17:59Z</time>
      </trkpt>
      <trkpt lat="44.1538" lon="6.7666">
        <ele>1269</ele>
        <time>2016-08-05T16:19:59Z</time>
      </trkpt>
      <trkpt lat="44.15388" lon="6.76696">
        <ele>1287</ele>
        <time>2016-08-05T16:21:59Z</time>
      </trkpt>
      <trkpt lat="44.15396" lon="6.76658">
        <ele>1280</ele>
        <time>2016-08-05T16:23:59Z</time>
      </trkpt>
      <trkpt lat="44.15435" lon="6.76584">
        <ele>1295</ele>
        <time>2016-08-05T16:25:59Z</time>
      </trkpt>
      <trkpt lat="44.15432" lon="6.7655">
        <ele>1271</ele>
        <time>2016-08-05T16:27:59Z</time>
      </trkpt>
      <trkpt lat="44.15446" lon="6.76557">
        <ele>1285</ele>
        <time>2016-08-05T16:29:59Z</time>
      </trkpt>
      <trkpt lat="44.15456" lon="6.76537">
        <ele>1280</ele>
        <time>2016-08-05T16:31:59Z</time>
      </trkpt>
      <trkpt lat="44.15521" lon="6.76521">
        <ele>1313</ele>
        <time>2016-08-05T16:33:59Z</time>
      </trkpt>
      <trkpt lat="44.15543" lon="6.76524">
        <ele>1318</ele>
        <time>2016-08-05T16:35:59Z</time>
      </trkpt>
      <trkpt lat="44.15557" lon="6.76569">
        <ele>1330</ele>
        <time>2016-08-05T16:37:59Z</time>
      </trkpt>
      <trkpt lat="44.15517" lon="6.76671">
        <ele>1339</ele>
        <time>2016-08-05T16:39:59Z</time>
      </trkpt>
      <trkpt lat="44.15491" lon="6.76801">
        <ele>1365</ele>
        <time>2016-08-05T16:41:59Z</time>
      </trkpt>
      <trkpt lat="44.15487" lon="6.76863">
        <ele>1375</ele>
        <time>2016-08-05T16:43:59Z</time>
      </trkpt>
      <trkpt lat="44.15476" lon="6.76935">
        <ele>1388</ele>
        <time>2016-08-05T16:45:59Z</time>
      </trkpt>
      <trkpt lat="44.15466" lon="6.76983">
        <ele>1400</ele>
        <time>2016-08-05T16:47:59Z</time>
      </trkpt>
      <trkpt lat="44.15434" lon="6.7701">
        <ele>1409</ele>
        <time>2016-08-05T16:49:59Z</time>
      </trkpt>
      <trkpt lat="44.15428" lon="6.77121">
        <ele>1427</ele>
        <time>2016-08-05T16:51:59Z</time>
      </trkpt>
      <trkpt lat="44.15408" lon="6.77146">
        <ele>1434</ele>
        <time>2016-08-05T16:53:59Z</time>
      </trkpt>
      <trkpt lat="44.15434" lon="6.77227">
        <ele>1448</ele>
        <time>2016-08-05T16:55:59Z</time>
      </trkpt>
      <trkpt lat="44.15372" lon="6.77242">
        <ele>1462</ele>
        <time>2016-08-05T16:57:59Z</time>
      </trkpt>
      <trkpt lat="44.15303" lon="6.77296">
        <ele>1489</ele>
        <time>2016-08-05T16:59:59Z</time>
      </trkpt>
      <trkpt lat="44.15214" lon="6.77311">
        <ele>1498</ele>
        <time>2016-08-05T17:01:59Z</time>
      </trkpt>
      <trkpt lat="44.15095" lon="6.7739">
        <ele>1520</ele>
        <time>2016-08-05T17:03:59Z</time>
      </trkpt>
      <trkpt lat="44.15047" lon="6.77416">
        <ele>1525</ele>
        <time>2016-08-05T17:05:59Z</time>
      </trkpt>
      <trkpt lat="44.14995" lon="6.77425">
        <ele>1522</ele>
        <time>2016-08-05T17:07:59Z</time>
      </trkpt>
      <trkpt lat="44.14995" lon="6.77481">
        <ele>1537</ele>
        <time>2016-08-05T17:09:59Z</time>
      </trkpt>
      <trkpt lat="44.14961" lon="6.77513">
        <ele>1543</ele>
        <time>2016-08-05T17:11:59Z</time>
      </trkpt>
      <trkpt lat="44.14918" lon="6.77541">
        <ele>1547</ele>
        <time>2016-08-05T17:13:59Z</time>
      </trkpt>
      <trkpt lat="44.14816" lon="6.77584">
        <ele>1529</ele>
        <time>2016-08-05T17:15:59Z</time>
      </trkpt>
      <trkpt lat="44.14838" lon="6.77678">
        <ele>1545</ele>
        <time>2016-08-05T17:17:59Z</time>
      </trkpt>
      <trkpt lat="44.14799" lon="6.77759">
        <ele>1529</ele>
        <time>2016-08-05T17:19:59Z</time>
      </trkpt>
      <trkpt lat="44.1484" lon="6.77914">
        <ele>1541</ele>
        <time>2016-08-05T17:21:59Z</time>
      </trkpt>
      <trkpt lat="44.14826" lon="6.77948">
        <ele>1527</ele>
        <time>2016-08-05T17:23:59Z</time>
      </trkpt>
      <trkpt lat="44.14866" lon="6.7803">
        <ele>1545</ele>
        <time>2016-08-05T17:25:59Z</time>
      </trkpt>
      <trkpt lat="44.1481" lon="6.78109">
        <ele>1517</ele>
        <time>2016-08-05T17:27:59Z</time>
      </trkpt>
      <trkpt lat="44.14847" lon="6.78176">
        <ele>1536</ele>
        <time>2016-08-05T17:29:59Z</time>
      </trkpt>
      <trkpt lat="44.14843" lon="6.7824">
        <ele>1528</ele>
        <time>2016-08-05T17:31:59Z</time>
      </trkpt>
      <trkpt lat="44.14872" lon="6.78332">
        <ele>1525</ele>
        <time>2016-08-05T17:33:59Z</time>
      </trkpt>
      <trkpt lat="44.14961" lon="6.78401">
        <ele>1538</ele>
        <time>2016-08-05T17:35:59Z</time>
      </trkpt>
      <trkpt lat="44.14992" lon="6.78519">
        <ele>1537</ele>
        <time>2016-08-05T17:37:59Z</time>
      </trkpt>
      <trkpt lat="44.15003" lon="6.78629">
        <ele>1550</ele>
        <time>2016-08-05T17:39:59Z</time>
      </trkpt>
      <trkpt lat="44.14986" lon="6.78609">
        <ele>1550</ele>
        <time>2016-08-05T17:41:59Z</time>
      </trkpt>
      <trkpt lat="44.14995" lon="6.78704">
        <ele>1559</ele>
        <time>2016-08-05T17:43:59Z</time>
      </trkpt>
      <trkpt lat="44.1498" lon="6.78783">
        <ele>1580</ele>
        <time>2016-08-05T17:45:59Z</time>
      </trkpt>
      <trkpt lat="44.14921" lon="6.78751">
        <ele>1593</ele>
        <time>2016-08-05T17:47:59Z</time>
      </trkpt>
      <trkpt lat="44.14867" lon="6.78611">
        <ele>1581</ele>
        <time>2016-08-05T17:49:59Z</time>
      </trkpt>
      <trkpt lat="44.14781" lon="6.78564">
        <ele>1590</ele>
        <time>2016-08-05T17:51:59Z</time>
      </trkpt>
      <trkpt lat="44.14713" lon="6.78525">
        <ele>1596</ele>
        <time>2016-08-05T17:53:59Z</time>
      </trkpt>
      <trkpt lat="44.14657" lon="6.78409">
        <ele>1585</ele>
        <time>2016-08-05T17:55:59Z</time>
      </trkpt>
      <trkpt lat="44.14599" lon="6.78302">
        <ele>1588</ele>
        <time>2016-08-05T17:57:59Z</time>
      </trkpt>
      <trkpt lat="44.14463" lon="6.7816">
        <ele>1569</ele>
        <time>2016-08-05T17:59:59Z</time>
      </trkpt>
      <trkpt lat="44.14352" lon="6.78233">
        <ele>1574</ele>
        <time>2016-08-05T18:01:59Z</time>
      </trkpt>
      <trkpt lat="44.14202" lon="6.78319">
        <ele>1581</ele>
        <time>2016-08-05T18:03:59Z</time>
      </trkpt>
      <trkpt lat="44.14057" lon="6.78387">
        <ele>1582</ele>
        <time>2016-08-05T18:05:59Z</time>
      </trkpt>
      <trkpt lat="44.14044" lon="6.78302">
        <ele>1557</ele>
        <time>2016-08-05T18:07:59Z</time>
      </trkpt>
      <trkpt lat="44.14004" lon="6.78233">
        <ele>1533</ele>
        <time>2016-08-05T18:09:59Z</time>
      </trkpt>
      <trkpt lat="44.13912" lon="6.78224">
        <ele>1522</ele>
        <time>2016-08-05T18:11:59Z</time>
      </trkpt>
      <trkpt lat="44.13807" lon="6.78259">
        <ele>1504</ele>
        <time>2016-08-05T18:13:59Z</time>
      </trkpt>
      <trkpt lat="44.13801" lon="6.7807">
        <ele>1465</ele>
        <time>2016-08-05T18:15:59Z</time>
      </trkpt>
      <trkpt lat="44.13872" lon="6.7789">
        <ele>1434</ele>
        <time>2016-08-05T18:17:59Z</time>
      </trkpt>
      <trkpt lat="44.13946" lon="6.77752">
        <ele>1394</ele>
        <time>2016-08-05T18:19:59Z</time>
      </trkpt>
      <trkpt lat="44.13839" lon="6.77733">
        <ele>1367</ele>
        <time>2016-08-05T18:21:59Z</time>
      </trkpt>
      <trkpt lat="44.13784" lon="6.77735">
        <ele>1354</ele>
        <time>2016-08-05T18:23:59Z</time>
      </trkpt>
      <trkpt lat="44.13737" lon="6.77753">
        <ele>1348</ele>
        <time>2016-08-05T18:25:59Z</time>
      </trkpt>
      <trkpt lat="44.13669" lon="6.77832">
        <ele>1341</ele>
        <time>2016-08-05T18:27:59Z</time>
      </trkpt>
      <trkpt lat="44.13605" lon="6.77895">
        <ele>1327</ele>
        <time>2016-08-05T18:29:59Z</time>
      </trkpt>
      <trkpt lat="44.13529" lon="6.7786">
        <ele>1289</ele>
        <time>2016-08-05T18:31:59Z</time>
      </trkpt>
      <trkpt lat="44.13558" lon="6.77687">
        <ele>1265</ele>
        <time>2016-08-05T18:33:59Z</time>
      </trkpt>
      <trkpt lat="44.13586" lon="6.77564">
        <ele>1249</ele>
        <time>2016-08-05T18:35:59Z</time>
      </trkpt>
      <trkpt lat="44.13566" lon="6.77545">
        <ele>1232</ele>
        <time>2016-08-05T18:37:59Z</time>
      </trkpt>
      <trkpt lat="44.13587" lon="6.77524">
        <ele>1238</ele>
        <time>2016-08-05T18:39:59Z</time>
      </trkpt>
      <trkpt lat="44.13564" lon="6.77507">
        <ele>1221</ele>
        <time>2016-08-05T18:41:59Z</time>
      </trkpt>
      <trkpt lat="44.13586" lon="6.77478">
        <ele>1225</ele>
        <time>2016-08-05T18:43:59Z</time>
      </trkpt>
      <trkpt lat="44.13573" lon="6.77463">
        <ele>1214</ele>
        <time>2016-08-05T18:45:59Z</time>
      </trkpt>
      <trkpt lat="44.13604" lon="6.77428">
        <ele>1215</ele>
        <time>2016-08-05T18:47:59Z</time>
      </trkpt>
      <trkpt lat="44.13588" lon="6.77425">
        <ele>1210</ele>
        <time>2016-08-05T18:49:59Z</time>
      </trkpt>
      <trkpt lat="44.13613" lon="6.77374">
        <ele>1199</ele>
        <time>2016-08-05T18:51:59Z</time>
      </trkpt>
      <trkpt lat="44.1358" lon="6.77389">
        <ele>1194</ele>
        <time>2016-08-05T18:53:59Z</time>
      </trkpt>
      <trkpt lat="44.13634" lon="6.77296">
        <ele>1179</ele>
        <time>2016-08-05T18:55:59Z</time>
      </trkpt>
      <trkpt lat="44.13623" lon="6.77292">
        <ele>1173</ele>
        <time>2016-08-05T18:57:59Z</time>
      </trkpt>
      <trkpt lat="44.13629" lon="6.77279">
        <ele>1171</ele>
        <time>2016-08-05T18:59:59Z</time>
      </trkpt>
      <trkpt lat="44.13522" lon="6.77341">
        <ele>1151</ele>
        <time>2016-08-05T19:01:59Z</time>
      </trkpt>
      <trkpt lat="44.13579" lon="6.77258">
        <ele>1143</ele>
        <time>2016-08-05T19:03:59Z</time>
      </trkpt>
      <trkpt lat="44.13559" lon="6.77249">
        <ele>1132</ele>
        <time>2016-08-05T19:05:59Z</time>
      </trkpt>
      <trkpt lat="44.13608" lon="6.77168">
        <ele>1125</ele>
        <time>2016-08-05T19:07:59Z</time>
      </trkpt>
      <trkpt lat="44.13633" lon="6.77106">
        <ele>1111</ele>
        <time>2016-08-05T19:09:59Z</time>
      </trkpt>
      <trkpt lat="44.13689" lon="6.77036">
        <ele>1100</ele>
        <time>2016-08-05T19:11:59Z</time>
      </trkpt>
      <trkpt lat="44.13716" lon="6.76998">
        <ele>1089</ele>
        <time>2016-08-05T19:13:59Z</time>
      </trkpt>
      <trkpt lat="44.13683" lon="6.7699">
        <ele>1083</ele>
        <time>2016-08-05T19:15:59Z</time>
      </trkpt>
      <trkpt lat="44.13717" lon="6.76954">
        <ele>1073</ele>
        <time>2016-08-05T19:17:59Z</time>
      </trkpt>
      <trkpt lat="44.13753" lon="6.76922">
        <ele>1063</ele>
        <time>2016-08-05T19:19:59Z</time>
      </trkpt>
      <trkpt lat="44.13713" lon="6.76892">
        <ele>1051</ele>
        <time>2016-08-05T19:21:59Z</time>
      </trkpt>
      <trkpt lat="44.13757" lon="6.76858">
        <ele>1045</ele>
        <time>2016-08-05T19:23:59Z</time>
      </trkpt>
      <trkpt lat="44.13755" lon="6.76833">
        <ele>1038</ele>
        <time>2016-08-05T19:25:59Z</time>
      </trkpt>
      <trkpt lat="44.13727" lon="6.76854">
        <ele>1040</ele>
        <time>2016-08-05T19:27:59Z</time>
      </trkpt>
      <trkpt lat="44.13735" lon="6.76829">
        <ele>1034</ele>
        <time>2016-08-05T19:29:59Z</time>
      </trkpt>
      <trkpt lat="44.13718" lon="6.76821">
        <ele>1030</ele>
        <time>2016-08-05T19:31:59Z</time>
      </trkpt>
      <trkpt lat="44.13724" lon="6.76793">
        <ele>1025</ele>
        <time>2016-08-05T19:33:59Z</time>
      </trkpt>
      <trkpt lat="44.13701" lon="6.76793">
        <ele>1022</ele>
        <time>2016-08-05T19:35:59Z</time>
      </trkpt>
      <trkpt lat="44.13695" lon="6.7675">
        <ele>1012</ele>
        <time>2016-08-05T19:37:59Z</time>
      </trkpt>
      <trkpt lat="44.13684" lon="6.76696">
        <ele>1004</ele>
        <time>2016-08-05T19:39:59Z</time>
      </trkpt>
      <trkpt lat="44.1372" lon="6.76676">
        <ele>1005</ele>
        <time>2016-08-05T19:41:59Z</time>
      </trkpt>
      <trkpt lat="44.13788" lon="6.76682">
        <ele>1009</ele>
        <time>2016-08-05T19:43:59Z</time>
      </trkpt>
      <trkpt lat="44.13865" lon="6.76717">
        <ele>1019</ele>
        <time>2016-08-05T19:45:59Z</time>
      </trkpt>
      <trkpt lat="44.13928" lon="6.76712">
        <ele>1024</ele>
        <time>2016-08-05T19:47:59Z</time>
      </trkpt>
      <trkpt lat="44.13954" lon="6.76642">
        <ele>1017</ele>
        <time>2016-08-05T19:49:59Z</time>
      </trkpt>
      <trkpt lat="44.1403" lon="6.76584">
        <ele>1015</ele>
        <time>2016-08-05T19:51:59Z</time>
      </trkpt>
      <trkpt lat="44.14127" lon="6.76549">
        <ele>1016</ele>
        <time>2016-08-05T19:53:59Z</time>
      </trkpt>
      <trkpt lat="44.14222" lon="6.76564">
        <ele>1023</ele>
        <time>2016-08-05T19:55:59Z</time>
      </trkpt>
      <trkpt lat="44.14267" lon="6.76508">
        <ele>1023</ele>
        <time>2016-08-05T19:57:59Z</time>
      </trkpt>
      <trkpt lat="44.14313" lon="6.76493">
        <ele>1026</ele>
        <time>2016-08-05T19:59:59Z</time>
      </trkpt>
      <trkpt lat="44.14339" lon="6.76519">
        <ele>1031</ele>
        <time>2016-08-05T20:01:59Z</time>
      </trkpt>
      <trkpt lat="44.14384" lon="6.76491">
        <ele>1030</ele>
        <time>2016-08-05T20:03:59Z</time>
      </trkpt>
      <trkpt lat="44.14481" lon="6.76528">
        <ele>1032</ele>
        <time>2016-08-05T20:05:59Z</time>
      </trkpt>
      <trkpt lat="44.14556" lon="6.76515">
        <ele>1033</ele>
        <time>2016-08-05T20:07:59Z</time>
      </trkpt>
      <trkpt lat="44.14619" lon="6.76491">
        <ele>1037</ele>
        <time>2016-08-05T20:09:59Z</time>
      </trkpt>
      <trkpt lat="44.1467" lon="6.76476">
        <ele>1041</ele>
        <time>2016-08-05T20:11:59Z</time>
      </trkpt>
      <trkpt lat="44.14709" lon="6.76429">
        <ele>1044</ele>
        <time>2016-08-05T20:13:59Z</time>
      </trkpt>
      <trkpt lat="44.14743" lon="6.76356">
        <ele>1043</ele>
        <time>2016-08-05T20:15:59Z</time>
      </trkpt>
      <trkpt lat="44.14818" lon="6.76281">
        <ele>1050</ele>
        <time>2016-08-05T20:17:59Z</time>
      </trkpt>
      <trkpt lat="44.14881" lon="6.76182">
        <ele>1048</ele>
        <time>2016-08-05T20:19:59Z</time>
      </trkpt>
    </trkseg>
  </trk>
</gpx>